Time;durP1;ratioP1;P1;durP2;ratioP2;P2;SDS_P1;SDS_P2;PMS_P1;PMS_P2;Temp;Humidity;BMP_temperature;BMP_pressure;BME280_temperature;BME280_humidity;BME280_pressure;Samples;Min_cycle;Max_cycle;Signal;HPM_P1;HPM_P2
2023/03/11 00:01:18;;;;;;;3.47;1.58;;;;;;;5.49;58.23;100672.63;5120415;27;20467;-61
2023/03/11 00:03:46;;;;;;;6.60;1.60;;;;;;;5.47;58.18;100669.34;5114149;28;20067;-60
2023/03/11 00:06:14;;;;;;;9.80;2.58;;;;;;;5.47;57.90;100666.66;5123002;28;20043;-60
2023/03/11 00:08:43;;;;;;;7.25;1.83;;;;;;;5.46;57.97;100679.16;5122737;28;20070;-62
2023/03/11 00:11:11;;;;;;;9.40;1.98;;;;;;;5.45;57.98;100680.19;5121428;28;20050;-61
2023/03/11 00:13:39;;;;;;;5.55;1.42;;;;;;;5.44;58.43;100672.38;5119728;28;20177;-60
2023/03/11 00:16:07;;;;;;;6.90;2.22;;;;;;;5.44;58.17;100680.38;5120913;27;20079;-60
2023/03/11 00:18:35;;;;;;;8.10;1.83;;;;;;;5.43;58.36;100678.72;5121248;28;20154;-61
2023/03/11 00:21:03;;;;;;;7.25;1.85;;;;;;;5.45;58.02;100682.03;5121577;28;20119;-61
2023/03/11 00:23:31;;;;;;;4.70;1.40;;;;;;;5.43;58.54;100687.56;5104403;28;20048;-61
2023/03/11 00:26:01;;;;;;;3.17;1.20;;;;;;;5.42;58.43;100685.91;5120068;28;20047;-61
2023/03/11 00:28:29;;;;;;;8.10;2.03;;;;;;;5.43;58.20;100684.06;5121866;28;20039;-61
2023/03/11 00:31:00;;;;;;;5.47;1.50;;;;;;;5.42;58.31;100687.75;5123110;28;20043;-61
2023/03/11 00:33:28;;;;;;;13.50;1.60;;;;;;;5.42;58.48;100688.56;5122296;28;20043;-61
2023/03/11 00:35:56;;;;;;;8.25;2.47;;;;;;;5.40;58.32;100687.13;5121222;28;20047;-61
2023/03/11 00:38:24;;;;;;;8.85;1.80;;;;;;;5.40;58.26;100697.78;5120316;28;20060;-61
2023/03/11 00:40:52;;;;;;;6.57;1.85;;;;;;;5.39;58.57;100698.78;5119254;28;20039;-61
2023/03/11 00:43:21;;;;;;;8.95;1.55;;;;;;;5.39;58.08;100699.63;5119523;28;20107;-61
2023/03/11 00:45:49;;;;;;;7.10;2.55;;;;;;;5.36;58.06;100697.34;5122771;28;20047;-61
2023/03/11 00:48:16;;;;;;;6.30;1.63;;;;;;;5.38;58.17;100695.31;5112601;28;20057;-61
2023/03/11 00:50:44;;;;;;;4.55;1.40;;;;;;;5.37;58.36;100706.16;5116770;28;20048;-60
2023/03/11 00:53:12;;;;;;;5.40;1.92;;;;;;;5.36;58.10;100700.00;5116448;28;20134;-60
2023/03/11 00:55:40;;;;;;;5.55;1.48;;;;;;;5.34;58.38;100707.34;5115514;28;20130;-60
2023/03/11 00:58:08;;;;;;;7.97;1.50;;;;;;;5.34;58.41;100709.19;5125163;28;20104;-60
2023/03/11 01:00:37;;;;;;;4.07;1.40;;;;;;;5.34;58.28;100709.19;5122618;28;20107;-61
2023/03/11 01:03:05;;;;;;;5.22;1.52;;;;;;;5.33;58.52;100716.38;5118225;27;20079;-61
2023/03/11 01:05:34;;;;;;;9.77;1.90;;;;;;;5.35;58.37;100721.50;5114171;28;20079;-61
2023/03/11 01:08:03;;;;;;;5.03;1.60;;;;;;;5.35;58.64;100737.50;5116963;28;20131;-61
2023/03/11 01:10:33;;;;;;;3.53;1.25;;;;;;;5.32;58.49;100736.03;5118411;27;20075;-61
2023/03/11 01:13:01;;;;;;;8.98;2.30;;;;;;;5.31;58.39;100737.06;5108368;28;20048;-61
2023/03/11 01:15:31;;;;;;;3.63;1.63;;;;;;;5.27;58.26;100733.13;5106395;28;20063;-61
2023/03/11 01:18:01;;;;;;;4.10;1.40;;;;;;;5.32;58.36;100746.69;5132849;27;20540;-61
2023/03/11 01:20:29;;;;;;;5.15;1.23;;;;;;;5.31;58.54;100742.38;5125780;28;20162;-61
2023/03/11 01:22:57;;;;;;;5.60;1.45;;;;;;;5.33;57.96;100755.50;5125203;27;20104;-60
2023/03/11 01:25:25;;;;;;;6.22;1.45;;;;;;;5.31;58.39;100752.22;5121940;27;20071;-62
2023/03/11 01:27:53;;;;;;;5.45;1.58;;;;;;;5.30;58.58;100748.72;5114847;28;20065;-60
2023/03/11 01:30:23;;;;;;;7.40;1.60;;;;;;;5.30;58.36;100748.72;5119244;28;20040;-60
2023/03/11 01:32:52;;;;;;;8.75;1.90;;;;;;;5.31;58.49;100752.22;5115517;28;20099;-60
2023/03/11 01:35:24;;;;;;;5.40;1.15;;;;;;;5.28;58.42;100749.94;5118456;28;20074;-61
2023/03/11 01:37:52;;;;;;;5.22;1.70;;;;;;;5.21;58.68;100734.69;5112260;28;20055;-60
2023/03/11 01:40:26;;;;;;;7.07;1.80;;;;;;;5.30;58.53;100751.38;5122900;28;20062;-61
2023/03/11 01:42:54;;;;;;;10.57;1.77;;;;;;;5.28;58.42;100750.75;5115091;28;20185;-61
2023/03/11 01:46:03;;;;;;;8.88;2.03;;;;;;;5.30;58.41;100745.22;5122378;27;20111;-61
2023/03/11 01:48:30;;;;;;;7.18;2.33;;;;;;;5.29;58.69;100752.41;5115307;28;20082;-61
2023/03/11 01:51:00;;;;;;;7.10;2.22;;;;;;;5.30;58.46;100755.88;5125308;28;20047;-59
2023/03/11 01:53:28;;;;;;;12.23;2.15;;;;;;;5.29;58.40;100751.56;5110958;27;20044;-60
2023/03/11 01:55:56;;;;;;;7.15;2.72;;;;;;;5.29;58.36;100748.91;5123231;28;20048;-60
2023/03/11 01:58:30;;;;;;;10.85;3.03;;;;;;;5.28;58.43;100750.75;5113013;28;20070;-60
2023/03/11 02:01:01;;;;;;;9.93;3.63;;;;;;;5.26;58.57;100751.94;5111392;28;20043;-60
2023/03/11 02:03:31;;;;;;;9.13;2.83;;;;;;;5.25;58.60;100753.78;5124786;28;20079;-62
2023/03/11 02:06:03;;;;;;;9.55;3.47;;;;;;;5.24;58.34;100752.97;5120392;28;20047;-60
2023/03/11 02:08:33;;;;;;;10.30;3.45;;;;;;;5.23;58.47;100753.16;5114005;28;20079;-60
2023/03/11 02:11:03;;;;;;;13.02;3.42;;;;;;;5.24;58.85;100755.63;5117263;27;20040;-60
2023/03/11 02:13:33;;;;;;;9.57;4.07;;;;;;;5.20;58.32;100751.69;5105761;28;20040;-61
2023/03/11 02:16:01;;;;;;;11.68;4.55;;;;;;;5.20;58.42;100756.22;5117468;28;20079;-60
2023/03/11 02:18:29;;;;;;;10.30;3.13;;;;;;;5.15;58.39;100748.81;5120557;28;20103;-61
2023/03/11 02:21:08;;;;;;;9.23;2.60;;;;;;;5.20;58.80;100758.91;5116354;28;20083;-60
2023/03/11 02:23:42;;;;;;;4.25;2.10;;;;;;;5.18;58.51;100752.94;5124102;28;20048;-61
2023/03/11 02:26:15;;;;;;;10.02;2.90;;;;;;;5.18;58.64;100756.41;5110968;28;20070;-61
2023/03/11 02:28:46;;;;;;;7.82;2.58;;;;;;;5.17;58.56;100753.94;5119090;28;20039;-61
2023/03/11 02:31:14;;;;;;;6.63;2.10;;;;;;;5.17;58.57;100759.28;5124275;28;20375;-61
2023/03/11 02:33:45;;;;;;;7.72;2.17;;;;;;;5.15;58.37;100759.47;5121764;28;20073;-61
2023/03/11 02:36:32;;;;;;;8.40;2.45;;;;;;;5.16;58.30;100763.78;5119443;28;20039;-61
2023/03/11 02:39:00;;;;;;;6.88;2.33;;;;;;;5.17;58.94;100756.59;5116952;28;20154;-61
2023/03/11 02:41:29;;;;;;;7.25;2.40;;;;;;;5.15;58.57;100759.47;5117951;28;20100;-60
2023/03/11 02:44:00;;;;;;;8.65;2.85;;;;;;;5.12;58.69;100751.84;5117135;28;20055;-61
2023/03/11 02:46:28;;;;;;;5.65;1.95;;;;;;;5.11;58.46;100752.03;5117962;28;20042;-61
2023/03/11 02:48:57;;;;;;;10.05;2.10;;;;;;;5.11;58.19;100754.69;5120823;28;20051;-61
2023/03/11 02:51:25;;;;;;;7.40;2.28;;;;;;;5.10;58.40;100759.19;5122721;28;20036;-61
2023/03/11 02:53:57;;;;;;;8.27;1.83;;;;;;;5.10;58.83;100764.53;5118389;28;20061;-61
2023/03/11 02:56:25;;;;;;;6.25;1.95;;;;;;;5.09;58.43;100751.41;5123498;28;20057;-61
2023/03/11 02:58:53;;;;;;;6.35;2.38;;;;;;;5.10;58.68;100751.22;5117268;28;20052;-60
2023/03/11 03:01:22;;;;;;;10.38;2.60;;;;;;;5.10;58.53;100753.06;5120841;28;20082;-61
2023/03/11 03:03:50;;;;;;;3.88;1.40;;;;;;;5.07;58.23;100751.59;5125977;27;20067;-60
2023/03/11 03:06:18;;;;;;;11.93;2.38;;;;;;;5.04;58.50;100757.28;5117997;28;20047;-61
2023/03/11 03:08:46;;;;;;;4.70;1.73;;;;;;;5.08;58.90;100760.41;5110085;28;20704;-61
2023/03/11 03:11:14;;;;;;;6.43;1.90;;;;;;;5.07;58.84;100759.56;5120743;28;20081;-61
2023/03/11 03:13:41;;;;;;;8.80;2.10;;;;;;;5.07;58.64;100756.91;5124463;28;20058;-60
2023/03/11 03:16:09;;;;;;;5.63;1.75;;;;;;;5.06;58.95;100763.25;5121820;28;20126;-59
2023/03/11 03:18:38;;;;;;;5.18;1.73;;;;;;;5.00;58.90;100763.19;5118251;28;20047;-60
2023/03/11 03:21:06;;;;;;;5.88;1.83;;;;;;;5.05;58.65;100772.25;5124272;28;20055;-60
2023/03/11 03:23:36;;;;;;;7.22;1.65;;;;;;;5.04;58.37;100783.09;5124587;28;20044;-61
2023/03/11 03:26:05;;;;;;;7.30;2.55;;;;;;;5.03;58.40;100790.25;5120748;28;20047;-60
2023/03/11 03:28:32;;;;;;;4.38;1.73;;;;;;;5.03;58.43;100787.59;5123244;28;20047;-60
2023/03/11 03:31:04;;;;;;;7.53;1.98;;;;;;;5.02;58.76;100796.59;5123060;28;20111;-60
2023/03/11 03:33:32;;;;;;;4.35;1.40;;;;;;;5.03;58.74;100795.59;5112160;28;20078;-61
2023/03/11 03:36:06;;;;;;;5.93;1.50;;;;;;;5.02;58.55;100806.44;5114545;28;20067;-61
2023/03/11 03:38:34;;;;;;;9.07;1.65;;;;;;;5.01;58.38;100815.44;5121019;28;20051;-60
2023/03/11 03:41:01;;;;;;;7.03;1.92;;;;;;;4.99;58.32;100810.28;5115370;28;20484;-61
2023/03/11 03:43:29;;;;;;;6.95;1.95;;;;;;;4.99;58.53;100818.28;5119332;28;20048;-62
2023/03/11 03:45:58;;;;;;;4.97;1.48;;;;;;;4.99;58.30;100815.63;5123230;28;20142;-61
2023/03/11 03:48:27;;;;;;;9.60;2.00;;;;;;;4.98;58.17;100813.13;5117267;28;20044;-61
2023/03/11 03:50:55;;;;;;;3.33;1.70;;;;;;;4.96;58.48;100821.31;5120990;28;20071;-60
2023/03/11 03:53:24;;;;;;;5.72;2.17;;;;;;;4.96;58.51;100821.31;5117207;28;20078;-60
2023/03/11 03:55:53;;;;;;;10.80;1.75;;;;;;;4.96;58.32;100820.50;5119075;28;20135;-61
2023/03/11 03:58:21;;;;;;;4.30;1.85;;;;;;;4.96;58.56;100823.16;5113941;28;20519;-61
2023/03/11 04:00:48;;;;;;;4.65;2.28;;;;;;;4.96;58.40;100836.47;5115177;28;20130;-61
2023/03/11 04:03:16;;;;;;;6.28;1.50;;;;;;;4.96;58.18;100833.81;5111105;28;20045;-61
2023/03/11 04:05:44;;;;;;;7.50;1.50;;;;;;;4.95;58.54;100837.47;5118127;28;20526;-61
2023/03/11 04:08:12;;;;;;;7.57;2.30;;;;;;;4.95;58.69;100835.66;5120931;28;20130;-61
2023/03/11 04:10:41;;;;;;;9.55;2.15;;;;;;;4.93;58.79;100827.00;5119800;28;20050;-61
2023/03/11 04:13:08;;;;;;;5.78;2.30;;;;;;;4.93;58.71;100828.84;5116889;28;20142;-61
2023/03/11 04:15:37;;;;;;;6.47;2.63;;;;;;;4.94;58.78;100834.00;5112683;28;20047;-61
2023/03/11 04:18:05;;;;;;;6.55;2.22;;;;;;;4.94;59.00;100836.66;5120741;28;20096;-60
2023/03/11 04:20:33;;;;;;;6.68;1.85;;;;;;;4.93;58.71;100831.50;5121742;28;20060;-61
2023/03/11 04:23:01;;;;;;;11.90;2.17;;;;;;;4.92;59.02;100833.34;5119453;28;20074;-61
2023/03/11 04:25:28;;;;;;;6.70;1.85;;;;;;;4.93;58.94;100832.34;5123309;28;20058;-61
2023/03/11 04:27:58;;;;;;;5.38;1.90;;;;;;;4.95;58.96;100842.81;5120030;28;20047;-61
2023/03/11 04:30:25;;;;;;;6.43;1.80;;;;;;;4.82;58.73;100825.66;5121953;28;20151;-61
2023/03/11 04:32:53;;;;;;;5.93;2.72;;;;;;;4.90;58.74;100844.19;5110920;28;20062;-61
2023/03/11 04:35:21;;;;;;;7.63;2.33;;;;;;;4.90;59.04;100840.69;5121363;28;20103;-60
2023/03/11 04:37:49;;;;;;;6.30;1.90;;;;;;;4.89;58.82;100839.03;5117817;28;20039;-61
2023/03/11 04:40:17;;;;;;;5.38;1.50;;;;;;;4.88;59.19;100834.72;5117777;28;20043;-61
2023/03/11 04:42:45;;;;;;;4.97;2.05;;;;;;;4.87;58.52;100836.56;5118921;28;20123;-62
2023/03/11 04:45:17;;;;;;;5.53;1.85;;;;;;;4.87;59.08;100836.56;5118643;28;20044;-61
2023/03/11 04:47:47;;;;;;;5.90;1.90;;;;;;;4.87;59.32;100839.22;5120114;28;20048;-61
2023/03/11 04:50:16;;;;;;;6.75;1.70;;;;;;;4.87;58.84;100841.91;5123656;28;20051;-61
2023/03/11 04:52:44;;;;;;;4.43;1.83;;;;;;;4.86;59.11;100850.88;5118477;28;20043;-61
2023/03/11 04:55:13;;;;;;;5.25;1.80;;;;;;;4.86;59.21;100853.56;5113682;28;20460;-60
2023/03/11 04:57:40;;;;;;;9.15;2.35;;;;;;;4.86;58.65;100844.75;5111903;28;20054;-60
2023/03/11 05:00:11;;;;;;;6.30;2.10;;;;;;;4.85;59.29;100841.25;5123469;28;20082;-60
2023/03/11 05:02:40;;;;;;;4.88;1.85;;;;;;;4.84;58.99;100846.75;5120260;28;20066;-60
2023/03/11 05:05:09;;;;;;;5.43;1.98;;;;;;;4.83;59.13;100848.59;5115925;28;20079;-60
2023/03/11 05:07:37;;;;;;;7.15;1.83;;;;;;;4.82;59.46;100854.94;5114901;28;20043;-61
2023/03/11 05:10:06;;;;;;;9.93;2.40;;;;;;;4.82;59.27;100854.94;5123173;28;20497;-60
2023/03/11 05:12:34;;;;;;;7.72;2.70;;;;;;;4.82;59.35;100862.09;5115373;28;20082;-60
2023/03/11 05:15:02;;;;;;;5.90;1.80;;;;;;;4.81;59.06;100863.09;5116172;28;20047;-61
2023/03/11 05:17:29;;;;;;;6.07;2.10;;;;;;;4.79;59.64;100863.28;5118386;28;20053;-62
2023/03/11 05:19:58;;;;;;;9.63;2.15;;;;;;;4.77;59.13;100865.31;5109888;28;20047;-61
2023/03/11 05:22:26;;;;;;;5.38;2.03;;;;;;;4.77;59.09;100872.47;5118920;28;20048;-60
2023/03/11 05:24:54;;;;;;;5.25;2.03;;;;;;;4.75;59.02;100871.81;5109471;28;20054;-60
2023/03/11 05:27:22;;;;;;;8.15;1.85;;;;;;;4.75;59.09;100875.31;5120103;28;20043;-62
2023/03/11 05:29:49;;;;;;;6.28;2.17;;;;;;;4.74;59.60;100872.84;5121925;28;20056;-61
2023/03/11 05:32:18;;;;;;;5.10;2.05;;;;;;;4.74;59.24;100878.16;5118424;28;20067;-61
2023/03/11 05:34:46;;;;;;;4.97;2.00;;;;;;;4.73;59.08;100881.84;5120899;28;20104;-62
2023/03/11 05:37:15;;;;;;;12.63;3.55;;;;;;;4.74;59.36;100886.16;5115146;28;20040;-62
2023/03/11 05:39:42;;;;;;;4.63;1.98;;;;;;;4.73;59.46;100890.66;5108496;28;20082;-59
2023/03/11 05:42:11;;;;;;;6.35;2.83;;;;;;;4.72;58.97;100890.81;5108416;28;20050;-59
2023/03/11 05:44:40;;;;;;;9.57;2.22;;;;;;;4.70;59.52;100895.50;5125247;28;20166;-60
2023/03/11 05:47:07;;;;;;;5.15;2.00;;;;;;;4.70;59.21;100896.34;5119125;28;20112;-62
2023/03/11 05:49:35;;;;;;;7.65;2.45;;;;;;;4.67;59.53;100895.88;5120330;28;20049;-62
2023/03/11 05:52:03;;;;;;;4.75;1.90;;;;;;;4.68;59.66;100905.50;5121647;28;20152;-61
2023/03/11 05:54:32;;;;;;;7.28;2.25;;;;;;;4.67;59.81;100902.03;5114232;28;20054;-61
2023/03/11 05:57:00;;;;;;;8.15;1.88;;;;;;;4.66;59.76;100900.38;5117954;28;20075;-61
2023/03/11 05:59:28;;;;;;;4.82;2.10;;;;;;;4.66;59.41;100900.38;4773428;27;10000202;-61
2023/03/11 06:01:55;;;;;;;6.28;2.03;;;;;;;4.68;59.65;100908.16;5116059;27;20071;-59
2023/03/11 06:04:23;;;;;;;6.97;2.00;;;;;;;4.75;58.74;100903.78;5106935;28;20594;-61
2023/03/11 06:06:51;;;;;;;5.32;1.90;;;;;;;4.89;58.45;100902.97;5110206;28;20047;-60
2023/03/11 06:09:19;;;;;;;5.53;1.95;;;;;;;5.04;58.55;100910.94;5118213;28;20180;-61
2023/03/11 06:11:48;;;;;;;7.33;2.77;;;;;;;5.19;57.88;100911.75;5119453;28;20078;-61
2023/03/11 06:14:16;;;;;;;7.00;2.80;;;;;;;5.40;57.20;100919.78;5118206;28;20078;-61
2023/03/11 06:16:44;;;;;;;7.38;3.03;;;;;;;5.56;56.94;100914.25;5114348;28;20079;-61
2023/03/11 06:19:12;;;;;;;6.05;2.30;;;;;;;5.71;56.25;100908.06;5114982;28;20055;-61
2023/03/11 06:21:41;;;;;;;4.00;1.70;;;;;;;5.89;55.81;100916.47;5115452;28;20519;-59
2023/03/11 06:24:09;;;;;;;5.30;1.90;;;;;;;6.08;54.98;100920.38;5118161;28;20182;-59
2023/03/11 06:26:36;;;;;;;9.90;2.78;;;;;;;6.18;54.84;100923.53;5115864;28;20091;-60
2023/03/11 06:29:09;;;;;;;8.85;2.97;;;;;;;6.21;54.70;100925.84;5109679;27;20111;-61
2023/03/11 06:31:38;;;;;;;9.00;2.20;;;;;;;6.10;54.88;100929.00;5119078;28;20092;-59
2023/03/11 06:34:06;;;;;;;8.13;2.10;;;;;;;5.93;55.27;100932.94;5116290;28;20123;-61
2023/03/11 06:36:34;;;;;;;6.93;2.25;;;;;;;5.74;55.68;100937.00;5113382;28;20489;-61
2023/03/11 06:39:02;;;;;;;7.07;2.10;;;;;;;5.59;56.24;100941.53;5116163;28;20059;-60
2023/03/11 06:41:33;;;;;;;6.15;2.38;;;;;;;5.46;56.63;100950.22;5119749;28;20294;-61
2023/03/11 06:44:01;;;;;;;7.82;2.30;;;;;;;5.34;57.09;100963.19;5117668;28;20069;-61
2023/03/11 06:46:30;;;;;;;6.78;2.30;;;;;;;5.24;57.35;100963.44;5117778;28;20111;-61
2023/03/11 06:48:58;;;;;;;12.20;2.65;;;;;;;5.17;57.53;100972.41;5116571;27;20543;-61
2023/03/11 06:51:26;;;;;;;3.53;2.00;;;;;;;5.11;57.82;100968.63;5111559;28;20055;-62
2023/03/11 06:53:54;;;;;;;6.25;2.00;;;;;;;5.06;58.14;100973.69;5114388;28;20040;-60
2023/03/11 06:56:23;;;;;;;5.10;2.22;;;;;;;5.03;58.37;100973.22;5114252;28;20044;-61
2023/03/11 06:58:51;;;;;;;8.77;2.45;;;;;;;5.00;57.98;100978.91;5118052;28;20170;-61
2023/03/11 07:01:23;;;;;;;7.60;2.40;;;;;;;4.96;58.31;100982.94;5116516;28;20138;-61
2023/03/11 07:03:52;;;;;;;6.60;1.90;;;;;;;4.97;58.58;100993.41;5108464;27;20112;-60
2023/03/11 07:06:22;;;;;;;5.38;2.47;;;;;;;4.86;58.18;100985.88;5119488;28;20054;-60
2023/03/11 07:08:51;;;;;;;6.85;2.60;;;;;;;4.90;58.52;101000.47;5118729;28;20047;-62
2023/03/11 07:11:21;;;;;;;8.82;2.33;;;;;;;4.88;58.75;100998.00;5119293;28;20074;-64
2023/03/11 07:13:49;;;;;;;7.85;2.35;;;;;;;4.86;58.74;100997.34;5117231;28;20746;-61
2023/03/11 07:16:19;;;;;;;9.32;2.85;;;;;;;4.86;58.85;100999.19;5112509;28;20048;-62
2023/03/11 07:18:49;;;;;;;13.27;3.63;;;;;;;4.84;58.69;101004.69;5113292;28;20119;-61
2023/03/11 07:21:20;;;;;;;8.52;2.50;;;;;;;4.84;58.91;101010.00;5115429;28;20059;-61
2023/03/11 07:23:51;;;;;;;6.15;2.50;;;;;;;4.84;59.15;101009.19;5119356;28;20048;-60
2023/03/11 07:26:19;;;;;;;6.63;2.78;;;;;;;4.84;59.06;101012.66;5119238;28;20051;-62
2023/03/11 07:28:48;;;;;;;7.30;2.40;;;;;;;4.83;59.14;101011.03;5120465;28;20299;-62
2023/03/11 07:31:17;;;;;;;10.43;2.80;;;;;;;4.82;58.97;101005.88;5119649;28;20109;-61
2023/03/11 07:33:46;;;;;;;8.18;2.53;;;;;;;4.80;59.35;101013.22;5108652;27;20079;-60
2023/03/11 07:36:16;;;;;;;9.82;2.83;;;;;;;4.80;58.91;101018.53;5116456;28;20126;-61
2023/03/11 07:38:46;;;;;;;13.65;3.40;;;;;;;4.79;59.46;101023.03;5111615;28;20090;-61
2023/03/11 07:41:15;;;;;;;6.57;2.13;;;;;;;4.79;59.54;101017.72;5118007;28;20046;-60
2023/03/11 07:43:43;;;;;;;8.70;2.40;;;;;;;4.77;59.45;101014.41;5118654;28;20139;-60
2023/03/11 07:46:15;;;;;;;9.30;3.47;;;;;;;4.79;59.76;101019.53;5109878;28;20056;-60
2023/03/11 07:48:43;;;;;;;9.05;2.90;;;;;;;4.93;58.76;101013.44;5111948;28;20120;-61
2023/03/11 07:51:12;;;;;;;7.82;2.38;;;;;;;5.03;58.98;101019.31;5120606;28;20058;-61
2023/03/11 07:53:40;;;;;;;10.00;2.53;;;;;;;5.04;58.27;101028.97;5111551;28;20058;-62
2023/03/11 07:56:11;;;;;;;7.60;2.83;;;;;;;5.17;58.37;101039.81;5118064;28;20039;-62
2023/03/11 07:58:40;;;;;;;4.90;2.20;;;;;;;5.30;57.82;101033.84;5116468;28;20086;-60
2023/03/11 08:01:09;;;;;;;6.88;3.00;;;;;;;5.36;57.52;101035.78;5118614;28;20048;-60
2023/03/11 08:03:38;;;;;;;7.75;2.85;;;;;;;5.39;56.58;101037.25;5110023;28;20136;-62
2023/03/11 08:06:12;;;;;;;6.85;2.45;;;;;;;5.33;57.05;101036.13;5114278;28;20358;-62
2023/03/11 08:08:40;;;;;;;6.97;2.67;;;;;;;5.30;57.08;101046.34;5115868;28;20056;-64
2023/03/11 08:11:11;;;;;;;9.73;2.78;;;;;;;5.22;57.29;101048.06;5109864;28;20360;-62
2023/03/11 08:13:39;;;;;;;11.88;3.08;;;;;;;5.16;57.04;101048.00;5118762;28;20032;-63
2023/03/11 08:16:09;;;;;;;4.85;2.50;;;;;;;5.12;57.78;101050.19;5117119;28;20300;-61
2023/03/11 08:18:37;;;;;;;4.75;2.60;;;;;;;5.07;57.43;101049.09;5115056;27;20043;-62
2023/03/11 08:21:05;;;;;;;7.95;2.55;;;;;;;5.05;57.43;101057.25;5110205;28;20135;-62
2023/03/11 08:23:33;;;;;;;8.85;2.67;;;;;;;5.02;57.63;101054.13;5111255;28;20524;-62
2023/03/11 08:26:03;;;;;;;8.55;2.40;;;;;;;4.99;57.91;101052.66;5116937;28;20064;-61
2023/03/11 08:28:32;;;;;;;11.38;2.50;;;;;;;4.97;58.02;101057.34;5116473;28;20044;-61
2023/03/11 08:31:01;;;;;;;7.57;2.20;;;;;;;4.95;58.20;101064.69;5115145;28;20048;-61
2023/03/11 08:33:28;;;;;;;8.10;2.35;;;;;;;4.93;57.36;101053.38;5114357;28;20096;-61
2023/03/11 08:35:56;;;;;;;6.32;2.35;;;;;;;4.91;57.67;101068.69;5115433;28;20054;-63
2023/03/11 08:38:24;;;;;;;6.32;2.20;;;;;;;4.90;57.15;101067.03;5114377;28;20040;-62
2023/03/11 08:40:52;;;;;;;8.25;2.22;;;;;;;4.89;58.03;101066.22;5109204;28;20079;-62
2023/03/11 08:43:20;;;;;;;6.30;2.47;;;;;;;4.89;57.79;101062.72;5113772;28;20047;-63
2023/03/11 08:45:49;;;;;;;5.50;2.28;;;;;;;4.88;57.87;101066.41;5115343;28;21033;-62
2023/03/11 08:48:17;;;;;;;7.63;2.13;;;;;;;4.87;57.61;101070.91;5109845;28;20052;-61
2023/03/11 08:50:44;;;;;;;3.80;2.00;;;;;;;4.88;57.06;101066.41;5107768;28;20063;-61
2023/03/11 08:53:21;;;;;;;7.88;2.30;;;;;;;4.87;57.35;101076.22;5110247;28;20062;-63
2023/03/11 08:55:50;;;;;;;7.95;2.15;;;;;;;4.87;56.79;101078.06;5114691;28;20055;-62
2023/03/11 08:58:17;;;;;;;5.95;2.10;;;;;;;4.88;56.56;101085.88;5114368;28;20059;-62
2023/03/11 09:00:45;;;;;;;10.00;2.60;;;;;;;4.86;56.79;101085.22;5117885;28;20116;-61
2023/03/11 09:03:14;;;;;;;3.33;1.60;;;;;;;4.84;55.14;101089.91;5116829;28;20079;-61
2023/03/11 09:05:42;;;;;;;7.70;1.90;;;;;;;4.82;55.49;101091.91;5110271;28;20098;-67
2023/03/11 09:08:10;;;;;;;7.88;1.65;;;;;;;4.84;56.54;101092.56;5105654;28;20119;-62
2023/03/11 09:10:38;;;;;;;3.20;1.73;;;;;;;4.86;55.84;101095.88;5112230;28;20482;-61
2023/03/11 09:13:05;;;;;;;5.43;2.15;;;;;;;4.87;56.42;101089.53;5114160;28;20039;-62
2023/03/11 09:15:35;;;;;;;10.20;1.70;;;;;;;4.89;56.29;101089.34;5118042;28;20047;-62
2023/03/11 09:18:03;;;;;;;4.85;1.40;;;;;;;4.88;56.82;101095.69;5121763;28;20047;-60
2023/03/11 09:20:32;;;;;;;5.93;1.73;;;;;;;4.90;55.85;101091.84;5110873;28;20081;-61
2023/03/11 09:22:59;;;;;;;5.10;1.45;;;;;;;4.89;55.98;101095.50;5123240;28;20047;-61
2023/03/11 09:25:27;;;;;;;3.70;1.73;;;;;;;4.89;55.09;101095.50;5113724;28;20048;-61
2023/03/11 09:27:55;;;;;;;7.70;1.52;;;;;;;4.87;55.19;101099.38;5118144;28;20039;-61
2023/03/11 09:30:23;;;;;;;6.30;1.50;;;;;;;4.85;54.72;101102.19;5123514;28;20079;-60
2023/03/11 09:32:50;;;;;;;4.18;1.13;;;;;;;4.86;55.35;101105.69;5104810;28;20051;-61
2023/03/11 09:35:18;;;;;;;6.05;1.20;;;;;;;4.84;55.20;101113.84;5120187;27;20044;-61
2023/03/11 09:37:47;;;;;;;5.55;1.45;;;;;;;4.85;54.36;101118.19;5118385;28;20040;-61
2023/03/11 09:40:17;;;;;;;2.67;1.42;;;;;;;4.86;54.60;101117.19;5118129;27;20051;-61
2023/03/11 09:42:54;;;;;;;3.25;1.40;;;;;;;4.87;54.00;101105.50;5120520;28;20076;-61
2023/03/11 09:45:27;;;;;;;3.38;1.10;;;;;;;4.86;54.58;101111.03;5122436;28;20050;-61
2023/03/11 09:48:08;;;;;;;5.50;0.95;;;;;;;4.87;54.01;101116.16;5105368;27;20075;-61
2023/03/11 09:50:43;;;;;;;5.63;1.17;;;;;;;4.88;54.26;101109.84;5123011;28;20082;-61
2023/03/11 09:53:22;;;;;;;6.93;1.77;;;;;;;4.88;54.07;101114.34;5115046;27;20119;-62
2023/03/11 09:55:53;;;;;;;4.72;1.10;;;;;;;4.90;55.07;101107.00;5107369;28;20044;-61
2023/03/11 09:58:30;;;;;;;1.98;0.88;;;;;;;4.84;55.12;101113.03;5120827;28;20047;-62
2023/03/11 10:00:58;;;;;;;3.28;1.02;;;;;;;4.81;54.40;101111.56;5120787;28;20054;-61
2023/03/11 10:03:30;;;;;;;11.23;1.77;;;;;;;4.82;54.75;101107.88;5121076;28;20082;-61
2023/03/11 10:06:06;;;;;;;6.78;1.23;;;;;;;4.85;54.57;101112.84;5120463;28;20056;-61
2023/03/11 10:08:42;;;;;;;7.95;1.20;;;;;;;4.91;54.92;101108.66;5115123;28;20063;-61
2023/03/11 10:11:27;;;;;;;4.88;1.80;;;;;;;4.92;55.61;101107.66;5121010;28;20081;-61
2023/03/11 10:14:07;;;;;;;4.45;1.30;;;;;;;4.94;55.39;101102.97;5111396;27;20063;-61
2023/03/11 10:16:44;;;;;;;2.67;0.93;;;;;;;4.97;55.31;101104.44;5115956;28;20075;-60
2023/03/11 10:19:21;;;;;;;5.13;0.93;;;;;;;4.98;55.37;101104.25;5104792;28;20051;-60
2023/03/11 10:22:00;;;;;;;3.78;1.05;;;;;;;5.02;55.67;101116.22;5119083;28;20055;-62
2023/03/11 10:24:50;;;;;;;5.82;1.15;;;;;;;5.04;56.29;101113.38;5121301;28;20050;-61
2023/03/11 10:27:22;;;;;;;3.22;1.13;;;;;;;5.08;56.51;101117.34;5118653;28;20058;-61
2023/03/11 10:29:58;;;;;;;1.83;1.02;;;;;;;5.10;56.64;101120.66;5115385;28;20055;-60
2023/03/11 10:32:34;;;;;;;3.90;0.88;;;;;;;5.15;57.02;101124.44;5121040;28;20077;-61
2023/03/11 10:35:15;;;;;;;2.17;1.00;;;;;;;5.34;55.65;101122.25;5112851;28;20040;-60
2023/03/11 10:37:46;;;;;;;2.70;1.08;;;;;;;5.56;55.33;101126.69;5121942;28;20059;-61
2023/03/11 10:40:26;;;;;;;4.63;1.33;;;;;;;5.77;55.35;101125.97;5119095;28;20108;-61
2023/03/11 10:42:58;;;;;;;5.18;0.90;;;;;;;5.85;54.29;101117.88;5120836;27;20135;-61
2023/03/11 10:45:29;;;;;;;3.58;1.05;;;;;;;6.05;53.57;101123.50;5121286;28;20044;-59
2023/03/11 10:47:57;;;;;;;3.55;1.30;;;;;;;6.20;52.35;101130.47;5117443;28;20147;-64
2023/03/11 10:50:25;;;;;;;3.88;1.08;;;;;;;6.31;51.89;101137.19;5124730;28;20111;-60
2023/03/11 10:53:08;;;;;;;4.28;1.00;;;;;;;6.34;51.82;101127.97;5121361;28;20115;-60
2023/03/11 10:55:46;;;;;;;3.55;0.80;;;;;;;6.30;52.21;101129.38;5116225;28;20048;-60
2023/03/11 10:58:17;;;;;;;1.23;0.70;;;;;;;6.19;51.82;101131.50;5116969;28;20075;-61
2023/03/11 11:00:45;;;;;;;3.38;1.10;;;;;;;6.11;52.82;101128.09;5111078;27;20048;-64
2023/03/11 11:03:21;;;;;;;8.05;1.70;;;;;;;6.07;52.34;101129.50;5121259;28;20048;-63
2023/03/11 11:06:02;;;;;;;3.13;1.13;;;;;;;6.01;53.35;101128.38;5123257;28;20473;-60
2023/03/11 11:08:30;;;;;;;7.53;1.20;;;;;;;5.98;53.55;101131.44;5120892;28;20099;-60
2023/03/11 11:11:01;;;;;;;2.58;1.00;;;;;;;5.93;52.53;101127.66;5115102;28;20134;-61
2023/03/11 11:13:31;;;;;;;1.48;0.60;;;;;;;5.90;52.41;101122.69;5117435;28;20110;-61
2023/03/11 11:16:01;;;;;;;2.22;0.80;;;;;;;5.85;51.94;101131.22;5110841;28;20147;-61
2023/03/11 11:18:32;;;;;;;3.20;0.98;;;;;;;5.82;51.71;101132.41;5121226;28;20074;-61
2023/03/11 11:21:04;;;;;;;2.78;0.68;;;;;;;5.84;52.40;101130.38;5113490;28;20117;-60
2023/03/11 11:23:36;;;;;;;3.38;0.95;;;;;;;5.84;52.40;101134.91;5113256;28;20039;-61
2023/03/11 11:26:08;;;;;;;1.77;0.80;;;;;;;5.83;52.90;101131.41;5119200;28;20469;-61
2023/03/11 11:28:36;;;;;;;5.10;1.45;;;;;;;5.85;52.88;101128.53;5122818;28;20152;-61
2023/03/11 11:31:06;;;;;;;4.55;0.60;;;;;;;5.84;52.69;101122.38;5113487;28;20062;-59
2023/03/11 11:33:40;;;;;;;3.42;0.93;;;;;;;5.85;52.76;101134.72;5116717;28;20047;-60
2023/03/11 11:36:15;;;;;;;1.48;0.70;;;;;;;5.85;53.64;101118.72;5112165;28;20047;-60
2023/03/11 11:38:43;;;;;;;4.32;1.10;;;;;;;5.87;53.57;101116.69;5117909;28;20044;-61
2023/03/11 11:41:16;;;;;;;3.87;0.97;;;;;;;5.86;52.83;101125.69;4762518;28;10000660;-60
2023/03/11 11:43:49;;;;;;;3.88;1.02;;;;;;;5.88;53.38;101122.84;5116634;28;20044;-61